Time;durP1;ratioP1;P1;durP2;ratioP2;P2;SDS_P1;SDS_P2;PMS_P1;PMS_P2;Temp;Humidity;BMP_temperature;BMP_pressure;BME280_temperature;BME280_humidity;BME280_pressure;Samples;Min_cycle;Max_cycle;Signal;HPM_P1;HPM_P2
2022/11/16 00:02:12;;;;;;;10.63;7.75;;;;;;;10.70;100.00;99047.53;5102309;28;20047;-67
2022/11/16 00:04:39;;;;;;;11.00;7.47;;;;;;;10.76;100.00;99047.94;5109110;28;20054;-67
2022/11/16 00:07:06;;;;;;;12.15;7.28;;;;;;;10.72;100.00;99033.22;5103421;28;20050;-69
2022/11/16 00:09:33;;;;;;;9.95;6.72;;;;;;;10.75;100.00;99045.41;5100804;28;20479;-68
2022/11/16 00:12:03;;;;;;;8.50;6.95;;;;;;;10.80;100.00;99048.59;5096014;28;20048;-68
2022/11/16 00:14:32;;;;;;;9.95;6.55;;;;;;;10.76;100.00;99047.94;5106223;28;20044;-69
2022/11/16 00:17:00;;;;;;;9.43;6.50;;;;;;;10.79;100.00;99049.53;5105447;28;20044;-69
2022/11/16 00:19:27;;;;;;;10.23;6.85;;;;;;;10.73;100.00;99052.59;5106001;28;20071;-68
2022/11/16 00:21:54;;;;;;;8.32;6.75;;;;;;;10.73;100.00;99056.09;5100427;28;20071;-68
2022/11/16 00:24:22;;;;;;;9.68;6.25;;;;;;;10.73;100.00;99053.44;5106675;28;20062;-67
2022/11/16 00:26:49;;;;;;;11.90;6.88;;;;;;;10.71;100.00;99054.50;5104085;28;20136;-67
2022/11/16 00:29:22;;;;;;;10.25;7.28;;;;;;;10.70;100.00;99053.69;5103874;28;20051;-67
2022/11/16 00:31:49;;;;;;;11.93;7.25;;;;;;;10.62;100.00;99055.16;5102057;28;20062;-68
2022/11/16 00:34:16;;;;;;;12.35;7.70;;;;;;;10.47;100.00;99036.72;5101283;28;20329;-66
2022/11/16 00:36:43;;;;;;;11.35;7.38;;;;;;;10.47;100.00;99038.50;5104133;28;20048;-67
2022/11/16 00:39:14;;;;;;;10.18;7.03;;;;;;;10.50;100.00;99043.59;5105739;28;20066;-68
2022/11/16 00:41:42;;;;;;;11.77;7.80;;;;;;;10.60;100.00;99060.53;5096057;28;20506;-68
2022/11/16 00:44:09;;;;;;;9.93;7.07;;;;;;;10.54;100.00;99059.19;5105216;28;20046;-67
2022/11/16 00:46:35;;;;;;;10.00;7.25;;;;;;;10.52;100.00;99057.59;5106832;28;20059;-68
2022/11/16 00:49:04;;;;;;;9.15;7.10;;;;;;;10.46;100.00;99055.34;5106690;28;20424;-67
2022/11/16 00:51:31;;;;;;;11.23;7.13;;;;;;;10.45;100.00;99048.34;5102693;28;20516;-68
2022/11/16 00:53:58;;;;;;;9.98;7.90;;;;;;;10.44;100.00;99059.88;5103539;28;20039;-67
2022/11/16 00:56:25;;;;;;;9.73;7.68;;;;;;;10.42;100.00;99054.69;5106189;28;20405;-67
2022/11/16 00:58:51;;;;;;;10.55;7.45;;;;;;;10.41;100.00;99057.44;5105869;28;20047;-68
2022/11/16 01:01:18;;;;;;;10.95;8.00;;;;;;;10.39;100.00;99048.78;5106881;28;20453;-68
2022/11/16 01:03:44;;;;;;;12.73;8.10;;;;;;;10.40;100.00;99050.44;5103199;28;20044;-67
2022/11/16 01:06:13;;;;;;;8.80;7.65;;;;;;;10.37;100.00;99034.81;5102735;28;20048;-66
2022/11/16 01:08:41;;;;;;;10.40;7.88;;;;;;;10.36;100.00;99041.03;5102138;28;20138;-69
2022/11/16 01:13:54;;;;;;;11.00;7.40;;;;;;;10.33;100.00;99038.59;5100850;28;20035;-67
2022/11/16 01:16:22;;;;;;;13.02;8.15;;;;;;;10.32;100.00;99043.03;5106131;28;20055;-69
2022/11/16 01:18:51;;;;;;;12.88;7.93;;;;;;;10.30;100.00;99033.50;5107540;28;20047;-69
2022/11/16 01:21:18;;;;;;;10.48;8.30;;;;;;;10.29;100.00;99031.81;5099965;28;20479;-69
2022/11/16 01:23:45;;;;;;;10.88;8.10;;;;;;;10.30;100.00;99029.06;5104378;28;20101;-68
2022/11/16 01:26:12;;;;;;;9.90;7.28;;;;;;;10.14;100.00;99005.41;5100973;28;20056;-70
2022/11/16 01:28:38;;;;;;;14.77;8.52;;;;;;;10.26;100.00;99030.22;5093756;28;20067;-68
2022/11/16 01:31:05;;;;;;;10.75;8.07;;;;;;;10.27;100.00;99033.72;5107319;28;20150;-69
2022/11/16 01:33:32;;;;;;;10.10;8.13;;;;;;;10.07;100.00;98998.81;5097745;28;20048;-68
2022/11/16 01:35:58;;;;;;;11.55;8.57;;;;;;;10.09;100.00;98998.72;5107093;28;20071;-68
2022/11/16 01:38:25;;;;;;;10.35;8.30;;;;;;;10.23;100.00;99016.38;5103800;28;20154;-69
2022/11/16 01:40:55;;;;;;;10.90;7.90;;;;;;;10.24;100.00;99018.03;5104889;28;20071;-68
2022/11/16 01:43:23;;;;;;;11.43;8.43;;;;;;;10.23;100.00;99021.66;5103265;28;20166;-68
2022/11/16 01:45:50;;;;;;;11.52;8.63;;;;;;;10.26;100.00;99013.50;5107892;28;20081;-67
2022/11/16 01:48:28;;;;;;;13.57;8.82;;;;;;;10.24;100.00;99004.81;5107263;28;20071;-68
2022/11/16 01:50:56;;;;;;;12.02;7.97;;;;;;;10.05;100.00;98978.75;5107346;28;20050;-68
2022/11/16 01:53:24;;;;;;;12.90;8.93;;;;;;;10.18;100.00;99014.88;5101377;28;20512;-69
2022/11/16 01:55:51;;;;;;;11.10;8.43;;;;;;;10.14;100.00;99009.84;5105549;28;20039;-68
2022/11/16 01:58:21;;;;;;;12.35;9.35;;;;;;;10.14;100.00;98997.47;5105358;28;20062;-68
2022/11/16 02:00:48;;;;;;;;;;;;;;;10.13;100.00;99003.72;5102197;28;20378;-69
2022/11/16 02:03:17;;;;;;;11.55;9.07;;;;;;;10.14;100.00;98999.28;5103450;28;19923;-68
2022/11/16 02:05:54;;;;;;;11.45;8.85;;;;;;;10.14;100.00;99005.41;5112145;28;20138;-68
2022/11/16 02:11:35;;;;;;;12.48;9.10;;;;;;;9.98;100.00;98970.34;5103742;28;20126;-68
2022/11/16 02:14:32;;;;;;;11.90;9.40;;;;;;;10.14;100.00;99001.91;5106098;28;20051;-69
2022/11/16 02:17:18;;;;;;;12.43;9.23;;;;;;;10.15;100.00;98996.53;5104536;28;20441;-68
2022/11/16 02:20:12;;;;;;;14.85;10.40;;;;;;;10.13;100.00;98990.50;5108276;28;20194;-69
2022/11/16 02:22:58;;;;;;;13.80;9.77;;;;;;;10.11;100.00;98983.59;5101850;27;20050;-68
2022/11/16 02:25:52;;;;;;;12.90;9.43;;;;;;;10.09;100.00;98981.06;5103727;28;20243;-69
2022/11/16 02:28:33;;;;;;;14.20;9.90;;;;;;;10.09;100.00;98978.41;5110501;28;20100;-68
2022/11/16 02:31:04;;;;;;;15.23;10.48;;;;;;;10.09;100.00;98978.41;5110156;28;20488;-69
2022/11/16 02:33:36;;;;;;;12.02;9.32;;;;;;;10.08;100.00;98976.72;5101907;28;20118;-69
2022/11/16 02:36:06;;;;;;;15.60;10.48;;;;;;;10.10;100.00;98977.47;5109418;28;20044;-69
2022/11/16 02:38:37;;;;;;;14.18;10.27;;;;;;;10.11;100.00;98971.22;5101573;27;20134;-69
2022/11/16 02:41:09;;;;;;;14.43;9.85;;;;;;;10.11;100.00;98971.22;5110465;28;20048;-69
2022/11/16 02:43:49;;;;;;;14.05;10.10;;;;;;;10.11;100.00;98970.38;5105046;28;20097;-70
2022/11/16 02:46:22;;;;;;;13.40;9.85;;;;;;;10.14;100.00;98968.38;5107801;28;20054;-70
2022/11/16 02:48:53;;;;;;;14.63;10.10;;;;;;;10.14;100.00;98965.72;5106134;28;20051;-69
2022/11/16 02:51:21;;;;;;;15.85;9.95;;;;;;;9.98;100.00;98943.91;5108947;28;20130;-69
2022/11/16 02:54:01;;;;;;;16.98;9.85;;;;;;;10.14;100.00;98965.72;5107438;28;20062;-69
2022/11/16 02:56:28;;;;;;;16.55;9.98;;;;;;;10.13;100.00;98966.69;5110382;28;20083;-70
2022/11/16 02:58:58;;;;;;;15.85;10.60;;;;;;;10.07;100.00;98951.22;5108319;28;20040;-70
2022/11/16 03:01:37;;;;;;;19.65;11.10;;;;;;;10.11;100.00;98958.00;5106561;28;20442;-70
2022/11/16 03:04:14;;;;;;;15.27;10.52;;;;;;;10.07;100.00;98951.22;5104900;28;20485;-69
2022/11/16 03:06:45;;;;;;;16.88;11.25;;;;;;;10.08;100.00;98960.84;5104904;28;20051;-69
2022/11/16 03:09:20;;;;;;;16.20;10.88;;;;;;;10.09;100.00;98962.53;5107629;28;20048;-70
2022/11/16 03:11:58;;;;;;;16.30;10.68;;;;;;;10.13;100.00;98958.75;5104287;28;20128;-70
2022/11/16 03:14:30;;;;;;;13.88;10.70;;;;;;;10.15;100.00;98958.66;5105640;28;20050;-70
2022/11/16 03:16:57;;;;;;;13.77;10.13;;;;;;;10.14;100.00;98951.66;5108536;28;20408;-70
2022/11/16 03:19:42;;;;;;;17.95;10.93;;;;;;;9.96;100.00;98922.00;5109490;27;20063;-70
2022/11/16 03:22:34;;;;;;;15.38;10.80;;;;;;;10.09;100.00;98957.25;5097510;28;20070;-70
2022/11/16 03:25:00;;;;;;;18.58;11.07;;;;;;;10.05;100.00;98947.84;5105847;28;20054;-70
2022/11/16 03:27:36;;;;;;;13.52;10.63;;;;;;;9.94;100.00;98931.84;5106947;28;20066;-69
2022/11/16 03:30:19;;;;;;;14.10;11.10;;;;;;;10.11;100.00;98960.66;5109611;28;20153;-69
2022/11/16 03:33:15;;;;;;;13.63;10.20;;;;;;;10.10;100.00;98958.94;5099058;28;20054;-69
2022/11/16 03:35:55;;;;;;;17.00;11.10;;;;;;;10.02;100.00;98940.13;5106719;28;20036;-70
2022/11/16 03:38:25;;;;;;;14.70;11.20;;;;;;;10.00;100.00;98938.53;5107782;28;20070;-69
2022/11/16 03:40:58;;;;;;;15.77;11.63;;;;;;;9.85;100.00;98921.91;5102007;28;20048;-70
2022/11/16 03:43:26;;;;;;;16.67;11.43;;;;;;;10.03;100.00;98951.56;5100012;28;20583;-70
2022/11/16 03:45:53;;;;;;;17.65;12.35;;;;;;;10.02;100.00;98937.47;5102444;28;20044;-70
2022/11/16 03:48:19;;;;;;;18.20;12.65;;;;;;;10.00;100.00;98938.53;5107511;27;20047;-71
2022/11/16 03:50:46;;;;;;;16.33;11.82;;;;;;;9.98;100.00;98938.63;5109173;28;20064;-69
2022/11/16 03:53:13;;;;;;;20.35;12.85;;;;;;;9.77;100.00;98901.25;5104352;28;20055;-70
2022/11/16 03:55:39;;;;;;;17.67;13.00;;;;;;;10.00;100.00;98942.03;5106737;28;20055;-71
2022/11/16 03:58:12;;;;;;;17.48;12.45;;;;;;;10.02;100.00;98940.13;5106283;28;20047;-71
2022/11/16 04:00:39;;;;;;;17.50;12.65;;;;;;;9.81;100.00;98910.69;5100533;28;20035;-70
2022/11/16 04:03:05;;;;;;;15.82;12.32;;;;;;;9.88;100.00;98916.41;5096905;28;20055;-70
2022/11/16 04:25:11;;;;;;;21.23;15.00;;;;;;;10.13;100.00;98968.47;5097236;28;20056;-70
2022/11/16 04:30:23;;;;;;;20.50;14.80;;;;;;;10.18;100.00;98956.69;5099589;28;20063;-69
2022/11/16 04:38:20;;;;;;;22.75;16.08;;;;;;;10.27;100.00;98952.53;5100813;28;20394;-71
2022/11/16 04:40:46;;;;;;;19.33;14.40;;;;;;;10.30;100.00;98962.91;5060540;28;20049;-70
2022/11/16 04:43:13;;;;;;;25.02;17.83;;;;;;;10.19;100.00;98950.44;5055337;28;20472;-71
2022/11/16 04:48:25;;;;;;;27.27;18.80;;;;;;;10.32;100.00;98962.81;5057640;28;20064;-71
2022/11/16 04:50:52;;;;;;;24.80;16.70;;;;;;;10.31;100.00;98961.97;5060727;28;20059;-70
2022/11/16 04:53:21;;;;;;;26.52;18.42;;;;;;;10.34;100.00;98971.50;5056639;28;20059;-70
2022/11/16 04:55:49;;;;;;;30.73;19.95;;;;;;;10.37;100.00;98976.59;5060845;28;20474;-71
2022/11/16 04:58:16;;;;;;;28.92;18.92;;;;;;;10.39;100.00;98967.56;5057435;28;20056;-70
2022/11/16 05:00:43;;;;;;;33.10;21.77;;;;;;;10.41;100.00;98960.38;5059660;28;20336;-70
2022/11/16 05:03:09;;;;;;;35.08;21.55;;;;;;;10.40;100.00;98963.13;5051583;28;20078;-70
2022/11/16 05:05:36;;;;;;;33.15;21.40;;;;;;;10.41;100.00;98970.97;5056482;28;20500;-72
2022/11/16 05:08:02;;;;;;;34.92;21.88;;;;;;;10.38;100.00;98976.50;5057074;28;20584;-70
2022/11/16 05:10:29;;;;;;;36.55;22.75;;;;;;;10.45;100.00;98984.84;5057283;28;20084;-71
2022/11/16 05:12:56;;;;;;;32.30;22.30;;;;;;;10.45;100.00;98982.19;5057895;28;20048;-71
2022/11/16 05:15:23;;;;;;;34.00;22.50;;;;;;;10.46;100.00;98986.53;5057479;28;20412;-71
2022/11/16 05:17:50;;;;;;;37.53;22.95;;;;;;;10.46;100.00;98975.94;5059284;28;20045;-70
2022/11/16 05:23:02;;;;;;;36.25;22.77;;;;;;;10.31;100.00;98950.53;5057060;28;20044;-70
2022/11/16 05:25:29;;;;;;;34.40;21.95;;;;;;;10.45;100.00;98974.25;5058059;28;20128;-70
2022/11/16 05:28:02;;;;;;;34.08;21.83;;;;;;;10.48;100.00;98981.97;5063593;28;20419;-70
2022/11/16 05:30:28;;;;;;;32.85;21.50;;;;;;;10.54;100.00;98981.56;5064439;28;20395;-72
2022/11/16 05:32:55;;;;;;;32.05;21.80;;;;;;;10.57;100.00;98978.69;5064580;28;20135;-71
2022/11/16 05:35:21;;;;;;;30.40;19.52;;;;;;;10.39;100.00;98948.22;5064693;28;20048;-70
2022/11/16 05:37:48;;;;;;;31.80;21.00;;;;;;;10.62;100.00;98981.88;5064637;28;20074;-70
2022/11/16 05:40:15;;;;;;;27.42;20.58;;;;;;;10.51;100.00;98958.81;5104461;27;20539;-70
2022/11/16 05:42:41;;;;;;;28.20;19.65;;;;;;;10.62;100.00;98971.28;5105125;28;20055;-70
2022/11/16 05:45:08;;;;;;;29.17;20.02;;;;;;;10.46;100.00;98947.69;5103238;28;20159;-70
2022/11/16 05:47:35;;;;;;;29.23;19.95;;;;;;;10.61;100.00;98984.63;5107055;28;20378;-71
2022/11/16 05:50:02;;;;;;;28.65;18.92;;;;;;;10.60;100.00;98983.78;5106871;28;20158;-71
2022/11/16 05:52:28;;;;;;;29.98;20.10;;;;;;;10.54;100.00;98979.78;5102575;28;20082;-71
2022/11/16 05:54:55;;;;;;;28.40;19.50;;;;;;;10.54;100.00;98992.16;5104403;28;20048;-70
2022/11/16 05:57:21;;;;;;;29.52;19.40;;;;;;;10.53;100.00;98986.03;5102271;28;20055;-70
2022/11/16 05:59:48;;;;;;;29.05;20.08;;;;;;;10.54;100.00;98994.81;5101657;28;20442;-71
2022/11/16 06:02:15;;;;;;;30.35;20.63;;;;;;;10.53;100.00;98998.41;5102318;28;20048;-70
2022/11/16 06:04:41;;;;;;;28.17;18.83;;;;;;;10.52;100.00;98991.41;5103020;28;20047;-71
2022/11/16 06:07:08;;;;;;;31.30;20.90;;;;;;;10.49;100.00;98996.91;5105349;28;20150;-72
2022/11/16 06:09:35;;;;;;;30.38;20.85;;;;;;;10.41;100.00;98988.63;5102813;28;20040;-72
2022/11/16 06:12:01;;;;;;;30.67;19.75;;;;;;;10.42;100.00;98996.47;5105342;28;20047;-70
2022/11/16 06:14:28;;;;;;;29.98;19.98;;;;;;;10.28;100.00;98980.69;5098946;28;20035;-71
2022/11/16 06:16:55;;;;;;;35.30;21.27;;;;;;;10.35;100.00;98995.22;5101739;28;20050;-71
2022/11/16 06:19:21;;;;;;;31.83;20.58;;;;;;;10.41;100.00;99001.88;5099642;28;20176;-72
2022/11/16 06:21:51;;;;;;;29.30;20.33;;;;;;;10.37;100.00;98987.19;5104681;28;20123;-72
2022/11/16 06:24:17;;;;;;;27.75;19.65;;;;;;;10.29;100.00;98979.75;5104909;28;20051;-71
2022/11/16 06:26:45;;;;;;;29.27;20.63;;;;;;;10.45;100.00;99004.22;5104052;28;20047;-71
2022/11/16 06:29:13;;;;;;;30.38;20.40;;;;;;;10.48;100.00;99001.34;5104014;28;20155;-70
2022/11/16 06:31:39;;;;;;;28.92;20.33;;;;;;;10.52;100.00;99004.66;5104687;28;20094;-71
2022/11/16 06:34:06;;;;;;;28.80;20.15;;;;;;;10.49;100.00;99007.50;5101198;28;20047;-72
2022/11/16 06:36:32;;;;;;;26.55;19.30;;;;;;;10.44;100.00;98989.28;5104921;28;20044;-70
2022/11/16 06:39:02;;;;;;;30.80;20.65;;;;;;;10.38;100.00;98988.88;5101020;28;20146;-71
2022/11/16 06:41:29;;;;;;;28.77;20.27;;;;;;;10.51;100.00;99010.91;5095792;28;20167;-70
2022/11/16 06:43:55;;;;;;;31.48;21.42;;;;;;;10.51;100.00;99018.84;5101223;28;20043;-70
2022/11/16 06:46:23;;;;;;;30.13;20.33;;;;;;;10.42;100.00;98996.47;5105063;28;20172;-72
2022/11/16 06:48:50;;;;;;;29.95;20.45;;;;;;;10.48;100.00;99011.09;5101556;28;20113;-72
2022/11/16 06:51:16;;;;;;;29.20;20.05;;;;;;;10.48;100.00;99011.94;5107384;28;20044;-70
2022/11/16 06:53:43;;;;;;;29.60;21.40;;;;;;;10.52;100.00;99015.25;5105038;28;20542;-72
2022/11/16 06:56:12;;;;;;;29.20;19.52;;;;;;;10.53;100.00;99019.56;5106502;28;20630;-72
2022/11/16 06:58:39;;;;;;;29.67;20.65;;;;;;;10.53;100.00;99019.56;5110048;28;20134;-71
2022/11/16 07:01:10;;;;;;;31.15;20.10;;;;;;;10.36;100.00;98996.06;5110322;28;20049;-72
2022/11/16 07:03:37;;;;;;;26.90;19.30;;;;;;;10.51;100.00;99027.63;5107284;28;20060;-72
2022/11/16 07:06:06;;;;;;;27.80;19.17;;;;;;;10.51;100.00;99029.41;5106285;28;20681;-70
2022/11/16 07:08:33;;;;;;;28.85;19.65;;;;;;;10.50;100.00;99031.22;5110776;28;20134;-71
2022/11/16 07:11:02;;;;;;;29.52;18.67;;;;;;;10.52;100.00;99028.47;5108062;28;20473;-71
2022/11/16 07:13:32;;;;;;;27.60;19.60;;;;;;;10.49;100.00;99031.31;5104348;28;20048;-70
2022/11/16 07:16:01;;;;;;;29.52;19.30;;;;;;;10.52;100.00;99045.19;5105526;28;20473;-73
2022/11/16 07:18:28;;;;;;;28.17;18.85;;;;;;;10.37;100.00;99016.28;5105620;28;20055;-71
2022/11/16 07:20:54;;;;;;;30.70;21.02;;;;;;;10.63;100.00;99052.41;5102558;28;20135;-71
2022/11/16 07:23:21;;;;;;;29.30;19.20;;;;;;;10.62;100.00;99050.69;5104801;28;20070;-72
2022/11/16 07:25:48;;;;;;;26.35;17.95;;;;;;;10.59;100.00;99045.59;5104883;28;20050;-71
2022/11/16 07:28:14;;;;;;;30.95;18.70;;;;;;;10.62;100.00;99056.00;5105549;28;20079;-71
2022/11/16 07:30:43;;;;;;;27.17;18.40;;;;;;;10.45;100.00;99029.81;5107141;28;20142;-70
2022/11/16 07:33:10;;;;;;;26.10;17.40;;;;;;;10.59;100.00;99061.50;5101084;28;20043;-70
2022/11/16 07:35:36;;;;;;;26.73;18.52;;;;;;;10.54;100.00;99058.34;5104368;28;20667;-70
2022/11/16 07:38:03;;;;;;;25.88;17.80;;;;;;;10.47;100.00;99060.53;5105706;28;20066;-71
2022/11/16 07:40:30;;;;;;;28.50;17.77;;;;;;;10.45;100.00;99066.88;5103083;28;20061;-71
2022/11/16 07:42:57;;;;;;;27.70;17.73;;;;;;;10.37;100.00;99056.81;5104569;28;20044;-70
2022/11/16 07:45:23;;;;;;;26.10;17.63;;;;;;;10.33;100.00;99059.78;5105952;28;20061;-70
2022/11/16 07:47:52;;;;;;;24.95;16.63;;;;;;;10.35;100.00;99063.16;5106900;28;20053;-70
2022/11/16 07:50:18;;;;;;;30.23;18.98;;;;;;;10.32;100.00;99064.22;5108373;28;20071;-72
2022/11/16 07:52:45;;;;;;;27.25;17.38;;;;;;;10.30;100.00;99059.97;5107801;28;20047;-71
2022/11/16 07:55:12;;;;;;;30.70;20.02;;;;;;;10.30;100.00;99066.09;5103953;28;20056;-70
2022/11/16 07:57:39;;;;;;;31.00;19.27;;;;;;;10.34;100.00;99072.06;5109868;28;20054;-70
2022/11/16 08:00:06;;;;;;;28.95;18.85;;;;;;;10.39;100.00;99067.31;5106043;28;20130;-72
2022/11/16 08:02:32;;;;;;;30.23;19.25;;;;;;;10.48;100.00;99075.47;5100775;28;20053;-72
2022/11/16 08:04:59;;;;;;;31.92;18.35;;;;;;;10.50;100.00;99070.91;5102723;28;20039;-72
2022/11/16 08:07:25;;;;;;;26.98;17.60;;;;;;;10.51;100.00;99074.41;5106130;28;20070;-70
2022/11/16 08:09:52;;;;;;;23.73;16.08;;;;;;;10.55;100.00;99078.53;5104470;28;20047;-67
2022/11/16 08:12:19;;;;;;;23.75;16.17;;;;;;;10.66;100.00;99075.16;5098821;28;20105;-71
2022/11/16 08:14:46;;;;;;;21.80;15.15;;;;;;;10.70;100.00;99074.88;5105310;28;20051;-70
2022/11/16 08:17:13;;;;;;;22.33;14.35;;;;;;;10.86;100.00;99086.06;5106849;28;20129;-70
2022/11/16 08:19:41;;;;;;;19.45;13.90;;;;;;;10.95;100.00;99078.47;5103531;28;20101;-71
2022/11/16 08:22:08;;;;;;;16.58;12.43;;;;;;;10.92;100.00;99076.00;5102081;28;20070;-70
2022/11/16 08:24:34;;;;;;;21.35;13.75;;;;;;;10.84;100.00;99064.16;5101650;28;20047;-71
2022/11/16 08:27:01;;;;;;;16.83;12.00;;;;;;;10.99;100.00;99079.94;5105240;28;20039;-71
2022/11/16 08:29:28;;;;;;;19.75;12.25;;;;;;;11.09;100.00;99096.88;5099367;28;20092;-72
2022/11/16 08:31:54;;;;;;;18.63;11.45;;;;;;;11.10;100.00;99088.00;5108520;28;20905;-70
2022/11/16 08:34:21;;;;;;;18.83;11.10;;;;;;;11.09;100.00;99094.25;5102279;28;20056;-72
2022/11/16 08:36:48;;;;;;;14.52;10.25;;;;;;;11.09;100.00;99103.03;5097845;28;20047;-70
2022/11/16 08:39:14;;;;;;;16.02;10.52;;;;;;;11.06;100.00;99105.03;5098053;28;20457;-71
2022/11/16 08:41:43;;;;;;;16.60;10.57;;;;;;;11.00;100.00;99108.13;5101294;28;20083;-72
2022/11/16 08:44:10;;;;;;;15.35;10.95;;;;;;;11.01;100.00;99112.47;5095940;28;20132;-71
2022/11/16 08:46:36;;;;;;;13.13;9.27;;;;;;;11.05;100.00;99113.94;5094833;28;20051;-71
2022/11/16 08:49:03;;;;;;;13.60;9.63;;;;;;;11.14;100.00;99121.28;5096869;28;20482;-71
2022/11/16 08:51:30;;;;;;;14.35;9.55;;;;;;;11.20;100.00;99126.13;5101676;28;20059;-71
2022/11/16 08:53:58;;;;;;;14.65;9.70;;;;;;;11.27;100.00;99130.06;5096644;28;20044;-73
2022/11/16 08:56:26;;;;;;;13.95;9.95;;;;;;;11.15;100.00;99099.97;5099122;28;20572;-70
2022/11/16 08:58:53;;;;;;;13.68;8.93;;;;;;;11.17;100.00;99131.66;5100772;28;20082;-71
2022/11/16 09:01:26;;;;;;;12.00;8.45;;;;;;;10.95;100.00;99124.34;5104755;28;20044;-70
2022/11/16 09:03:54;;;;;;;13.63;8.77;;;;;;;11.02;100.00;99133.53;5100745;28;20047;-69
2022/11/16 09:06:23;;;;;;;11.50;8.05;;;;;;;10.99;100.00;99138.22;5099129;28;20047;-71
2022/11/16 09:08:50;;;;;;;13.45;8.88;;;;;;;10.94;100.00;99137.69;5098038;28;20044;-70
2022/11/16 09:11:20;;;;;;;14.40;8.82;;;;;;;10.90;100.00;99139.69;5098672;28;20120;-71
2022/11/16 09:13:49;;;;;;;12.93;8.73;;;;;;;10.81;100.00;99142.97;5098510;28;20077;-70
2022/11/16 09:16:19;;;;;;;11.77;8.48;;;;;;;10.70;100.00;99105.78;5101971;28;20052;-69
2022/11/16 09:18:48;;;;;;;15.35;8.27;;;;;;;10.87;100.00;99113.41;5103459;28;20415;-71
2022/11/16 09:21:19;;;;;;;14.13;7.55;;;;;;;11.09;100.00;99133.97;5099403;28;20044;-71
2022/11/16 09:23:47;;;;;;;9.80;6.88;;;;;;;11.11;100.00;99127.63;5097858;28;20039;-71
2022/11/16 09:26:15;;;;;;;9.50;6.68;;;;;;;11.16;100.00;99137.91;5099016;28;20688;-70
2022/11/16 09:28:42;;;;;;;10.57;5.32;;;;;;;11.06;100.00;99140.31;5101650;28;20052;-71
2022/11/16 09:31:09;;;;;;;11.48;5.60;;;;;;;11.00;100.00;99148.72;5100540;28;20426;-74
2022/11/16 09:33:36;;;;;;;10.70;4.82;;;;;;;10.93;100.00;99144.78;5099856;28;20040;-71
2022/11/16 09:36:06;;;;;;;9.38;4.70;;;;;;;10.86;100.00;99139.03;5104908;28;20126;-72
2022/11/16 09:38:34;;;;;;;8.30;3.85;;;;;;;10.92;100.00;99147.53;5103373;28;20237;-73
2022/11/16 09:41:51;;;;;;;10.07;3.58;;;;;;;10.96;100.00;99154.31;5106994;28;20054;-74
2022/11/16 09:44:38;;;;;;;9.85;3.17;;;;;;;10.90;100.00;99140.53;5103667;28;20043;-71
2022/11/16 09:47:13;;;;;;;6.85;3.05;;;;;;;11.00;100.00;99169.91;5103717;28;20404;-70
2022/11/16 09:49:45;;;;;;;9.85;2.97;;;;;;;10.99;100.00;99176.16;5105573;28;20055;-73
2022/11/16 09:52:23;;;;;;;9.10;2.95;;;;;;;11.09;100.00;99176.38;5103250;28;20162;-70
2022/11/16 09:54:53;;;;;;;6.95;2.60;;;;;;;11.20;100.00;99179.13;5100280;28;20086;-72
2022/11/16 09:57:26;;;;;;;6.65;2.35;;;;;;;11.22;100.00;99171.91;5098638;28;20047;-68
2022/11/16 09:59:59;;;;;;;7.15;2.50;;;;;;;11.31;100.00;99179.25;5103196;28;20063;-73
2022/11/16 10:02:54;;;;;;;7.00;2.20;;;;;;;11.16;100.00;99133.47;5098934;28;20086;-73
2022/11/16 10:05:38;;;;;;;7.82;1.98;;;;;;;11.15;100.00;99144.16;5096474;28;20138;-69
2022/11/16 10:08:19;;;;;;;6.53;1.92;;;;;;;11.13;100.00;99173.41;5096217;28;20048;-70
2022/11/16 10:11:28;;;;;;;8.77;2.25;;;;;;;11.14;100.00;99168.97;5100724;28;20054;-78
2022/11/16 10:14:10;;;;;;;10.25;2.08;;;;;;;11.21;100.00;99164.91;5067265;28;20585;-73
2022/11/16 10:17:03;;;;;;;6.05;1.92;;;;;;;11.24;100.00;99167.38;5096928;28;20051;-72
2022/11/16 10:19:49;;;;;;;10.63;2.63;;;;;;;11.31;100.00;99175.75;5099390;28;20063;-71
2022/11/16 10:22:33;;;;;;;9.85;1.98;;;;;;;11.36;100.00;99168.31;5095265;28;20083;-71
2022/11/16 10:25:12;;;;;;;7.55;1.90;;;;;;;11.27;100.00;99161.84;5088751;27;20059;-70
2022/11/16 10:27:54;;;;;;;7.20;2.00;;;;;;;11.03;100.00;99135.25;5104794;27;20485;-72
2022/11/16 10:30:21;;;;;;;8.93;2.00;;;;;;;11.16;100.00;99178.50;5100560;28;20339;-74
2022/11/16 10:33:04;;;;;;;10.23;1.92;;;;;;;11.22;100.00;99171.91;5102108;28;20218;-70
2022/11/16 10:35:47;;;;;;;8.98;1.77;;;;;;;11.19;100.00;99169.47;5101238;28;20052;-72
2022/11/16 10:38:17;;;;;;;11.25;2.33;;;;;;;11.16;100.00;99153.81;5109273;28;20050;-73
2022/11/16 10:40:51;;;;;;;7.88;2.67;;;;;;;11.32;100.00;99161.53;5102146;28;20554;-73
2022/11/16 10:43:39;;;;;;;12.07;2.03;;;;;;;11.31;100.00;99160.69;5106093;28;20079;-75
2022/11/16 10:46:30;;;;;;;7.97;2.45;;;;;;;11.40;100.00;99151.25;5102246;28;20071;-74
2022/11/16 10:49:26;;;;;;;11.75;1.70;;;;;;;11.37;100.00;99156.75;5104025;28;20043;-75
2022/11/16 10:51:53;;;;;;;9.50;2.38;;;;;;;11.36;100.00;99155.91;5108650;28;20142;-73
2022/11/16 10:54:20;;;;;;;5.93;1.60;;;;;;;11.33;100.00;99156.16;5100504;28;20047;-75
2022/11/16 10:56:51;;;;;;;8.63;1.60;;;;;;;11.38;100.00;99151.34;5102707;28;20055;-73
2022/11/16 10:59:18;;;;;;;7.22;1.90;;;;;;;11.44;100.00;99145.63;5103772;28;20050;-69
2022/11/16 11:01:52;;;;;;;11.35;2.40;;;;;;;11.56;100.00;99152.72;5106803;28;20054;-71
2022/11/16 11:04:28;;;;;;;8.68;1.90;;;;;;;11.59;100.00;99154.31;5104477;28;20043;-72
2022/11/16 11:07:00;;;;;;;11.80;2.78;;;;;;;11.60;100.00;99140.94;5103450;28;20070;-74
2022/11/16 11:09:40;;;;;;;5.88;2.03;;;;;;;11.62;100.00;99137.34;5102164;27;20056;-72
2022/11/16 11:12:36;;;;;;;9.25;3.90;;;;;;;11.46;100.00;99105.75;5104389;28;20047;-75
2022/11/16 11:15:09;;;;;;;9.45;2.80;;;;;;;11.64;100.00;99146.03;5101117;28;20613;-70
2022/11/16 11:17:41;;;;;;;12.45;4.00;;;;;;;11.65;100.00;99137.13;5104961;28;20150;-74
2022/11/16 11:20:13;;;;;;;10.80;3.38;;;;;;;11.69;100.00;99133.28;5108247;28;20103;-75
2022/11/16 11:22:56;;;;;;;11.27;2.92;;;;;;;11.72;100.00;99133.06;5104343;28;20473;-72
2022/11/16 11:25:23;;;;;;;10.48;2.35;;;;;;;11.73;100.00;99138.25;5101871;28;20079;-70
2022/11/16 11:28:02;;;;;;;7.25;2.92;;;;;;;11.72;100.00;99114.50;5103900;28;20093;-70
2022/11/16 11:30:28;;;;;;;12.07;3.05;;;;;;;11.90;100.00;99135.28;5107466;28;20054;-73
2022/11/16 11:32:57;;;;;;;15.57;8.02;;;;;;;12.02;100.00;99130.88;5102845;28;20039;-72
2022/11/16 11:35:30;;;;;;;9.13;2.75;;;;;;;12.00;100.00;99127.47;5101891;28;20158;-73
2022/11/16 11:38:01;;;;;;;15.30;8.52;;;;;;;11.91;100.00;99104.28;5102726;28;20126;-70
2022/11/16 11:40:33;;;;;;;11.35;3.42;;;;;;;12.18;100.00;99127.94;5102458;28;20471;-71
2022/11/16 11:43:04;;;;;;;5.55;2.00;;;;;;;12.22;100.00;99118.81;5103513;28;20151;-69
2022/11/16 11:45:43;;;;;;;7.53;2.13;;;;;;;12.21;100.00;99115.31;5102875;28;20047;-68
2022/11/16 11:48:46;;;;;;;7.10;2.55;;;;;;;12.11;100.00;99116.94;5119309;27;20047;-73
2022/11/16 11:51:33;;;;;;;9.70;2.22;;;;;;;12.03;100.00;99123.75;5103055;28;20140;-72
2022/11/16 11:54:03;;;;;;;7.55;2.42;;;;;;;11.88;100.00;99125.72;5104085;28;20043;-72
2022/11/16 11:56:32;;;;;;;9.33;2.03;;;;;;;11.52;100.00;99124.72;5098683;28;20047;-74
2022/11/16 11:59:03;;;;;;;10.35;2.78;;;;;;;11.28;100.00;99129.09;5102943;28;20075;-75
2022/11/16 12:01:51;;;;;;;8.75;2.83;;;;;;;11.24;100.00;99123.16;5098062;28;20126;-74
2022/11/16 12:04:27;;;;;;;9.77;2.10;;;;;;;11.25;100.00;99116.06;5098675;28;20055;-73
2022/11/16 12:07:19;;;;;;;10.93;3.20;;;;;;;11.19;100.00;99119.97;5096234;28;20056;-72
2022/11/16 12:10:03;;;;;;;5.95;1.63;;;;;;;10.96;100.00;99090.75;5104821;28;20046;-68
2022/11/16 12:13:00;;;;;;;6.70;2.13;;;;;;;11.15;100.00;99107.06;5099260;28;20113;-69